Daily Weather Observations for Burdell (Townsville)
For Thursday 7th February 2019

This table is designed for ease of comparison to Bureau of Meteorology recorded weather data.

Station Details Name: BURDELL Lat: -19.24 Lon: 146.69 Height: 8.5 m
Date/Time
EST
Temp
°C
App
Temp
°C
Dew
Point
°C
Rel
Hum
%
Delta-T
°C
Wind Press
QNH
hPa
Press
MSL
hPa
Rain since
9am
mm
Dir  Spd
km/h
Gust
km/h
Spd
kts
Gust
kts
07/11:30pm 23.9 26.1 23.9 100 0.0 S 19 23 10 13 998.7 998.7 106.7
07/11:00pm 24.1 28.0 24.1 100 0.0 S 14 26 7 14 998.7 998.7 103.9
07/10:30pm 24.2 29.0 24.2 100 0.0 SSE 12 18 6 10 999.0 999.0 97.5
07/10:00pm 24.4 27.6 24.4 100 -0.0 SE 17 26 9 14 999.0 999.0 90.1
07/09:30pm 24.4 25.8 24.4 100 0.0 SE 30 39 16 21 998.3 998.3 79.7
07/09:00pm 24.8 26.8 24.7 100 0.1 SSE 25 32 14 17 997.8 997.8 70.8
07/08:30pm 25.1 29.0 24.9 99 0.1 SSE 16 26 9 14 997.2 997.2 68.3
07/08:00pm 25.2 30.2 25.0 99 0.1 SSE 12 21 7 11 997.0 997.0 68.3
07/07:30pm 25.5 29.8 25.4 100 0.1 SSE 14 21 7 11 996.6 996.6 66.3
07/07:00pm 25.6 29.7 25.6 100 0.0 SE 20 26 11 14 996.3 996.3 64.7
07/06:30pm 25.8 31.1 25.8 100 0.0 SE 10 13 5 7 995.9 995.9 61.7
07/06:00pm 26.1 30.5 25.9 100 0.1 ESE 17 29 9 16 995.8 995.8 52.6
07/05:30pm 26.4 31.1 26.2 99 0.2 SE 16 21 9 11 995.4 995.4 42.9
07/05:00pm 26.3 31.0 26.1 99 0.2 SE 16 21 8 11 995.4 995.4 41.9
07/04:30pm 26.1 29.7 25.9 99 0.1 SE 21 26 11 14 995.4 995.4 40.9
07/04:00pm 26.3 30.2 26.0 98 0.2 SE 17 21 9 11 995.4 995.4 40.1
07/03:30pm 26.3 29.5 26.0 98 0.2 SE 22 29 12 16 995.2 995.2 38.8
07/03:00pm 25.9 32.1 25.9 100 0.0 SSE 8 21 5 11 995.3 995.3 37.6
07/02:30pm 25.6 31.1 25.6 100 0.0 SSE 12 18 6 10 995.7 995.7 36.6
07/02:00pm 25.2 30.1 25.2 100 -0.0 SSE 13 18 7 10 996.1 996.1 34.5
07/01:30pm 24.9 30.0 24.9 100 0.0 S 9 16 5 9 996.3 996.3 31.7
07/01:00pm 25.0 29.2 24.9 100 0.1 SSE 12 16 7 9 996.7 996.7 20.3
07/12:30pm 25.2 30.1 24.9 98 0.2 SSE 11 16 6 9 997.0 997.0 5.6
07/12:00pm 25.4 28.3 24.9 97 0.4 SSE 19 26 10 14 997.0 997.0 1.8
07/11:30am 25.2 29.2 24.9 98 0.2 S 13 18 7 10 997.6 997.6 1.8
07/11:00am 25.2 29.4 24.7 97 0.4 S 17 23 9 13 997.9 997.9 1.5
07/10:30am 25.8 29.3 24.4 92 1.0 SSE 16 23 9 13 998.1 998.1 0.0
07/10:00am 25.6 28.5 24.4 93 0.9 SSE 19 29 10 16 998.2 998.2 0.0
07/09:30am 25.7 29.9 24.3 92 1.0 SSE 11 16 6 9 998.2 998.2 0.0
07/09:00am 25.5 28.1 24.1 92 1.0 SSE 20 26 11 14 998.0 998.0 0.0
07/08:30am 25.2 27.4 24.1 94 0.8 SSE 19 26 10 14 997.9 997.9 10.9
07/08:00am 24.7 27.7 23.8 95 0.7 SSE 17 26 9 14 997.8 997.8 10.9
07/07:30am 24.4 27.7 23.7 96 0.5 SSE 15 26 8 14 997.7 997.7 10.9
07/07:00am 24.9 26.6 23.9 96 0.7 SSE 24 42 13 23 997.2 997.2 10.9
07/06:30am 24.2 27.4 23.8 98 0.3 SSE 15 23 8 13 996.8 996.8 10.9
07/06:00am 23.7 28.1 23.5 99 0.1 SSE 8 10 4 6 996.6 996.6 10.9
07/05:30am 23.4 25.9 23.4 100 0.0 SSE 17 21 9 11 996.4 996.4 10.9
07/05:00am 23.3 26.2 23.3 100 0.0 SSE 15 21 8 11 996.4 996.4 10.9
07/04:30am 23.7 27.0 23.6 100 0.1 S 16 23 9 13 996.4 996.4 10.6
07/04:00am 23.8 26.5 23.6 99 0.1 S 18 23 10 13 996.0 996.0 9.9
07/03:30am 24.2 27.7 24.0 99 0.1 SSE 14 18 8 10 995.8 995.8 9.9
07/03:00am 24.6 26.8 24.3 98 0.2 SE 20 26 11 14 995.8 995.8 8.8
07/02:30am 25.2 29.5 25.2 100 0.0 SSE 17 21 9 11 995.9 995.9 8.8
07/02:00am 25.6 31.7 25.6 100 0.0 SSE 4 5 2 3 996.3 996.3 6.8
07/01:30am 25.8 31.6 25.6 99 0.1 SSE 7 13 4 7 996.6 996.6 6.6
07/01:00am 26.0 32.8 25.8 99 0.1 SSE 2 2 1 1 996.8 996.8 6.6
07/12:30am 26.2 32.2 25.9 98 0.2 SE 6 8 4 4 997.4 997.4 5.8
07/12:00am 26.2 31.4 25.9 98 0.2 SE 13 16 7 9 997.5 997.5 5.8
 


NOTE: The apparent temperature specified in the table above is calculated using both the Heat Index and Steadman method. This differs to the Bureau of Meteorology's calculation which uses the Steadman method alone.